Time;durP1;ratioP1;P1;durP2;ratioP2;P2;SDS_P1;SDS_P2;PMS_P1;PMS_P2;Temp;Humidity;BMP_temperature;BMP_pressure;BME280_temperature;BME280_humidity;BME280_pressure;Samples;Min_cycle;Max_cycle;Signal;HPM_P1;HPM_P2
2022/02/16 00:01:29;;;;;;;;;;;;;;;9.10;100.00;96733.09;5110457;28;19924;-77
2022/02/16 00:03:57;;;;;;;;;;;;;;;9.10;100.00;96724.72;5109586;28;19931;-77
2022/02/16 00:06:24;;;;;;;;;;;;;;;9.00;100.00;96723.97;5110626;28;19955;-77
2022/02/16 00:08:52;;;;;;;;;;;;;;;9.37;100.00;96721.03;5110629;28;19969;-77
2022/02/16 00:11:20;;;;;;;;;;;;;;;9.33;100.00;96717.66;5109081;28;19923;-77
2022/02/16 00:13:48;;;;;;;;;;;;;;;9.41;100.00;96707.69;5110566;28;19924;-77
2022/02/16 00:16:15;;;;;;;;;;;;;;;9.10;100.00;96694.84;5108927;28;19924;-77
2022/02/16 00:18:42;;;;;;;;;;;;;;;9.15;100.00;96685.84;5109329;28;19924;-77
2022/02/16 00:21:10;;;;;;;;;;;;;;;9.28;100.00;96688.44;5105845;28;20027;-77
2022/02/16 00:23:37;;;;;;;;;;;;;;;9.26;100.00;96674.19;5096746;28;19944;-77
2022/02/16 00:26:04;;;;;;;;;;;;;;;9.50;100.00;96672.19;5095371;28;20005;-77
2022/02/16 00:28:31;;;;;;;;;;;;;;;9.24;100.00;96656.41;5096718;28;19924;-77
2022/02/16 00:30:59;;;;;;;;;;;;;;;9.35;100.00;96648.28;5096290;28;19931;-77
2022/02/16 00:33:26;;;;;;;;;;;;;;;9.51;100.00;96653.47;5078761;28;20412;-77
2022/02/16 00:35:53;;;;;;;;;;;;;;;9.57;100.00;96634.84;5066619;28;19932;-77
2022/02/16 00:38:21;;;;;;;;;;;;;;;9.31;100.00;96636.56;5075026;28;19924;-77
2022/02/16 00:40:49;;;;;;;;;;;;;;;9.04;100.00;96629.88;5075182;28;20003;-77
2022/02/16 00:43:17;;;;;;;;;;;;;;;9.05;100.00;96630.66;5075123;28;19928;-77
2022/02/16 00:45:44;;;;;;;;;;;;;;;8.77;100.00;96618.06;5074642;28;19924;-77
2022/02/16 00:48:11;;;;;;;;;;;;;;;9.10;100.00;96605.69;5058466;28;19931;-78
2022/02/16 00:50:39;;;;;;;;;;;;;;;9.26;100.00;96607.31;5074811;28;20068;-77
2022/02/16 00:53:06;;;;;;;;;;;;;;;9.13;100.00;96598.44;5058118;28;19935;-77
2022/02/16 00:55:34;;;;;;;;;;;;;;;9.35;100.00;96592.56;5074695;28;19931;-77
2022/02/16 00:58:05;;;;;;;;;;;;;;;8.97;100.00;96591.25;5074784;28;20023;-77
2022/02/16 01:00:33;;;;;;;;;;;;;;;9.22;100.00;96592.03;5075606;28;20319;-77
2022/02/16 01:03:03;;;;;;;;;;;;;;;9.27;100.00;96580.25;5074650;28;19925;-77
2022/02/16 01:05:30;;;;;;;;;;;;;;;9.43;100.00;96563.09;5075566;28;19966;-77
2022/02/16 01:07:58;;;;;;;;;;;;;;;9.68;100.00;96565.41;5075633;28;19932;-77
2022/02/16 01:10:25;;;;;;;;;;;;;;;9.24;100.00;96542.94;5074154;28;20387;-77
2022/02/16 01:12:54;;;;;;;;;;;;;;;9.63;100.00;96563.25;5074433;28;19931;-77
2022/02/16 01:15:23;;;;;;;;;;;;;;;9.59;100.00;96537.59;5073948;28;19925;-77
2022/02/16 01:17:50;;;;;;;;;;;;;;;9.73;100.00;96539.63;5074452;28;19924;-77
2022/02/16 01:20:29;;;;;;;;;;;;;;;9.64;100.00;96537.69;5088366;28;20011;-77
2022/02/16 01:23:05;;;;;;;;;;;;;;;9.61;100.00;96519.13;5093899;28;19924;-77
2022/02/16 01:25:32;;;;;;;;;;;;;;;9.59;100.00;96504.16;5094329;28;19981;-77
2022/02/16 01:28:05;;;;;;;;;;;;;;;9.60;100.00;96508.47;5076980;28;19975;-77
2022/02/16 01:30:37;;;;;;;;;;;;;;;9.67;100.00;96483.00;5094267;28;19947;-77
2022/02/16 01:33:18;;;;;;;;;;;;;;;9.85;100.00;96480.03;5093239;28;19932;-77
2022/02/16 01:35:49;;;;;;;;;;;;;;;9.79;100.00;96477.16;5082394;28;19932;-77
2022/02/16 01:38:16;;;;;;;;;;;;;;;9.76;100.00;96486.47;5074047;28;19932;-77
2022/02/16 01:40:53;;;;;;;;;;;;;;;9.91;100.00;96472.53;5073937;28;20035;-77
2022/02/16 01:43:21;;;;;;;;;;;;;;;9.82;100.00;96464.25;5073671;28;20286;-77
2022/02/16 01:45:51;;;;;;;;;;;;;;;9.94;100.00;96471.56;5073689;28;19974;-77
2022/02/16 01:48:22;;;;;;;;;;;;;;;9.91;100.00;96467.72;5073673;28;19925;-77
2022/02/16 01:50:49;;;;;;;;;;;;;;;9.99;100.00;96457.72;5057124;28;20023;-77
2022/02/16 01:53:29;;;;;;;;;;;;;;;10.07;100.00;96472.09;5073843;28;19989;-77
2022/02/16 01:55:56;;;;;;;;;;;;;;;10.05;100.00;96455.03;5073362;28;19978;-77
2022/02/16 01:58:24;;;;;;;;;;;;;;;10.18;100.00;96461.88;5073232;28;19925;-77
2022/02/16 02:01:09;;;;;;;;;;;;;;;10.29;100.00;96472.44;5074391;28;19931;-77
2022/02/16 02:03:37;;;;;;;;;;;;;;;10.50;100.00;96460.06;5056799;28;19925;-77
2022/02/16 02:06:09;;;;;;;;;;;;;;;10.22;100.00;96459.63;5057082;28;20042;-77
2022/02/16 02:08:37;;;;;;;;;;;;;;;10.37;100.00;96465.22;5072837;28;19978;-77
2022/02/16 02:11:05;;;;;;;;;;;;;;;10.19;100.00;96443.88;5072684;28;19924;-77
2022/02/16 02:13:52;;;;;;;;;;;;;;;10.26;100.00;96449.06;5072991;28;19997;-77
2022/02/16 02:16:22;;;;;;;;;;;;;;;10.10;100.00;96441.19;5073218;28;19931;-77
2022/02/16 02:18:49;;;;;;;;;;;;;;;10.11;100.00;96442.75;5073248;28;19924;-77
2022/02/16 02:21:21;;;;;;;;;;;;;;;10.32;100.00;96457.53;5073182;28;19978;-77
2022/02/16 02:23:49;;;;;;;;;;;;;;;10.42;100.00;96445.00;5073084;28;19931;-77
2022/02/16 02:26:16;;;;;;;;;;;;;;;10.26;100.00;96453.88;5072743;28;19971;-77
2022/02/16 02:28:44;;;;;;;;;;;;;;;10.53;100.00;96461.91;5073075;28;19924;-77
2022/02/16 02:31:12;;;;;;;;;;;;;;;10.59;100.00;96459.97;5056254;28;19997;-77
2022/02/16 02:33:40;;;;;;;;;;;;;;;10.74;100.00;96452.31;5072929;28;20025;-77
2022/02/16 02:36:07;;;;;;;;;;;;;;;10.88;100.00;96445.91;5070165;28;20355;-77
2022/02/16 02:38:35;;;;;;;;;;;;;;;11.00;100.00;96450.38;5093172;28;19989;-77
2022/02/16 02:41:03;;;;;;;;;;;;;;;11.02;100.00;96447.09;5094065;28;20256;-77
2022/02/16 02:43:38;;;;;;;;;;;;;;;10.92;100.00;96450.03;5076201;28;20314;-77
2022/02/16 02:46:05;;;;;;;;;;;;;;;11.09;100.00;96447.44;5092829;28;19973;-77
2022/02/16 02:48:40;;;;;;;;;;;;;;;11.11;100.00;96456.13;5093246;28;19946;-77
2022/02/16 02:51:08;;;;;;;;;;;;;;;11.13;100.00;96453.59;5092867;28;19924;-77
2022/02/16 02:54:04;;;;;;;;;;;;;;;11.24;100.00;96458.56;5092970;28;20294;-77
2022/02/16 02:56:39;;;;;;;;;;;;;;;11.20;100.00;96458.75;5109252;28;20263;-77
2022/02/16 02:59:06;;;;;;;;;;;;;;;11.24;100.00;96459.31;5094342;28;19931;-77
2022/02/16 03:01:34;;;;;;;;;;;;;;;11.23;100.00;96463.38;5092917;28;19924;-77
2022/02/16 03:04:01;;;;;;;;;;;;;;;11.50;100.00;96460.13;5094080;28;20295;-77
2022/02/16 03:06:33;;;;;;;;;;;;;;;11.39;100.00;96437.63;5092774;28;19928;-77
2022/02/16 03:09:00;;;;;;;;;;;;;;;11.44;100.00;96452.94;5093712;28;19924;-77
2022/02/16 03:11:28;;;;;;;;;;;;;;;11.44;100.00;96448.13;5075638;28;20399;-77
2022/02/16 03:13:56;;;;;;;;;;;;;;;11.46;100.00;96454.00;5092722;28;19924;-77
2022/02/16 03:16:33;;;;;;;;;;;;;;;11.59;100.00;96459.97;5092848;28;20328;-77
2022/02/16 03:19:26;;;;;;;;;;;;;;;11.50;100.00;96457.34;5093926;28;20295;-77
2022/02/16 03:21:54;;;;;;;;;;;;;;;11.51;100.00;96456.06;5092639;28;19930;-77
2022/02/16 03:24:22;;;;;;;;;;;;;;;11.57;100.00;96459.69;5075694;28;19993;-77
2022/02/16 03:26:49;;;;;;;;;;;;;;;11.65;100.00;96432.88;5092619;28;19924;-77
2022/02/16 03:29:21;;;;;;;;;;;;;;;11.77;100.00;96428.91;5075732;28;20306;-77
2022/02/16 03:31:55;;;;;;;;;;;;;;;11.81;100.00;96454.66;5092482;28;19924;-77
2022/02/16 03:34:22;;;;;;;;;;;;;;;11.79;100.00;96459.97;5092647;28;19939;-77
2022/02/16 03:36:50;;;;;;;;;;;;;;;11.95;100.00;96445.34;5072768;28;20382;-77
2022/02/16 03:39:18;;;;;;;;;;;;;;;11.99;100.00;96451.53;5072023;28;19931;-77
2022/02/16 03:41:48;;;;;;;;;;;;;;;11.81;100.00;96463.06;5072357;28;19932;-77
2022/02/16 03:44:16;;;;;;;;;;;;;;;11.89;100.00;96463.38;5072256;28;19931;-77
2022/02/16 03:46:51;;;;;;;;;;;;;;;12.02;100.00;96456.13;5072460;28;19928;-77
2022/02/16 03:49:48;;;;;;;;;;;;;;;12.02;100.00;96472.91;5072295;28;20368;-77
2022/02/16 03:52:15;;;;;;;;;;;;;;;12.01;100.00;96476.22;5072238;28;19924;-77
2022/02/16 03:54:43;;;;;;;;;;;;;;;11.94;100.00;96471.03;5055339;28;19924;-77
2022/02/16 03:57:10;;;;;;;;;;;;;;;11.89;100.00;96482.97;5074235;28;20015;-77
2022/02/16 03:59:37;;;;;;;;;;;;;;;12.15;100.00;96480.91;5076075;28;20307;-77
2022/02/16 04:02:23;;;;;;;;;;;;;;;11.92;100.00;96467.97;5075894;28;19978;-77
2022/02/16 04:04:50;;;;;;;;;;;;;;;12.18;100.00;96488.31;5059253;28;19925;-77
2022/02/16 04:07:18;;;;;;;;;;;;;;;12.22;100.00;96481.22;5075756;28;19928;-77
2022/02/16 04:09:45;;;;;;;;;;;;;;;12.15;100.00;96470.47;5075454;28;20379;-77
2022/02/16 04:12:12;;;;;;;;;;;;;;;12.16;100.00;96482.44;5075698;28;20336;-77
2022/02/16 04:14:39;;;;;;;;;;;;;;;12.16;100.00;96480.41;5059201;28;19924;-77
2022/02/16 04:17:06;;;;;;;;;;;;;;;12.12;100.00;96488.25;5075664;28;19990;-77
2022/02/16 04:19:34;;;;;;;;;;;;;;;12.16;100.00;96502.78;5075692;28;19932;-77
2022/02/16 04:22:01;;;;;;;;;;;;;;;12.15;100.00;96504.06;5076592;28;19924;-77
2022/02/16 04:24:29;;;;;;;;;;;;;;;12.06;100.00;96498.63;5076520;28;19925;-77
2022/02/16 04:26:56;;;;;;;;;;;;;;;12.26;100.00;96492.19;5076704;28;20388;-77
2022/02/16 04:29:25;;;;;;;;;;;;;;;12.41;100.00;96507.59;5075462;28;19924;-77
2022/02/16 04:31:52;;;;;;;;;;;;;;;12.30;100.00;96515.91;5075337;28;19924;-77
2022/02/16 04:34:19;;;;;;;;;;;;;;;12.34;100.00;96527.63;5058699;28;19925;-77
2022/02/16 04:36:46;;;;;;;;;;;;;;;12.43;100.00;96523.91;5094682;28;20394;-77
2022/02/16 04:39:16;;;;;;;;;;;;;;;12.37;100.00;96515.44;5095472;28;19924;-77
2022/02/16 04:41:43;;;;;;;;;;;;;;;12.34;100.00;96533.25;5078394;28;20010;-77
2022/02/16 04:44:14;;;;;;;;;;;;;;;12.16;100.00;96522.38;5129806;27;19931;-77
2022/02/16 04:46:51;;;;;;;;;;;;;;;12.26;100.00;96515.38;5095402;28;20018;-77
2022/02/16 04:49:20;;;;;;;;;;;;;;;12.41;100.00;96515.22;5095411;28;19963;-77
2022/02/16 04:51:47;;;;;;;;;;;;;;;12.55;100.00;96505.94;5095010;28;19928;-77
2022/02/16 04:54:15;;;;;;;;;;;;;;;12.57;100.00;96517.41;5095159;28;19931;-77
2022/02/16 04:56:42;;;;;;;;;;;;;;;12.23;100.00;96518.38;5095196;28;20370;-77
2022/02/16 04:59:09;;;;;;;;;;;;;;;12.34;100.00;96508.03;5095177;28;19963;-77
2022/02/16 05:01:37;;;;;;;;;;;;;;;12.39;100.00;96521.34;5095043;28;19924;-77
2022/02/16 05:04:05;;;;;;;;;;;;;;;12.28;100.00;96517.69;5095086;28;19957;-77
2022/02/16 05:06:34;;;;;;;;;;;;;;;12.42;100.00;96511.94;5094544;28;19924;-77
2022/02/16 05:09:04;;;;;;;;;;;;;;;12.40;100.00;96503.25;5094598;28;19939;-77
2022/02/16 05:11:31;;;;;;;;;;;;;;;12.34;100.00;96522.03;5094826;28;19945;-77
2022/02/16 05:14:04;;;;;;;;;;;;;;;12.33;100.00;96533.72;5094819;28;20014;-77
2022/02/16 05:16:33;;;;;;;;;;;;;;;12.21;100.00;96513.28;5094690;28;20351;-77
2022/02/16 05:19:00;;;;;;;;;;;;;;;12.35;100.00;96514.41;5078163;28;20390;-76
2022/02/16 05:21:33;;;;;;;;;;;;;;;12.39;100.00;96526.16;5094410;28;19924;-77
2022/02/16 05:24:03;;;;;;;;;;;;;;;12.36;100.00;96521.53;5077891;28;19924;-77
2022/02/16 05:26:30;;;;;;;;;;;;;;;12.26;100.00;96515.38;5077427;28;19927;-77
2022/02/16 05:29:00;;;;;;;;;;;;;;;12.12;100.00;96510.66;5106468;27;19977;-77
2022/02/16 05:31:29;;;;;;;;;;;;;;;12.31;100.00;96528.63;5042322;28;19924;-77
2022/02/16 05:33:57;;;;;;;;;;;;;;;12.30;100.00;96507.50;5079039;28;19974;-77
2022/02/16 05:36:24;;;;;;;;;;;;;;;12.18;100.00;96488.31;5094070;28;19924;-77
2022/02/16 05:38:52;;;;;;;;;;;;;;;12.44;100.00;96515.03;5095325;28;19924;-77
2022/02/16 05:41:20;;;;;;;;;;;;;;;12.47;100.00;96530.81;5094122;28;19924;-77
2022/02/16 05:43:49;;;;;;;;;;;;;;;12.43;100.00;96532.31;5094141;28;19924;-78
2022/02/16 05:46:17;;;;;;;;;;;;;;;12.45;100.00;96522.16;5087547;28;19935;-77
2022/02/16 05:48:45;;;;;;;;;;;;;;;12.46;100.00;96536.94;5073700;28;19931;-77
2022/02/16 05:51:12;;;;;;;;;;;;;;;12.44;100.00;96550.66;5057091;28;19925;-77
2022/02/16 05:53:39;;;;;;;;;;;;;;;12.54;100.00;96569.56;5073843;28;19931;-77
2022/02/16 05:56:10;;;;;;;;;;;;;;;12.40;100.00;96581.66;5073559;28;19947;-77
2022/02/16 05:58:36;;;;;;;;;;;;;;;12.39;100.00;96574.53;5073693;28;19924;-77
2022/02/16 06:01:04;;;;;;;;;;;;;;;12.50;100.00;96571.84;5073563;28;19925;-77
2022/02/16 06:03:51;;;;;;;;;;;;;;;12.32;100.00;96622.56;5073926;28;19924;-77
2022/02/16 06:06:18;;;;;;;;;;;;;;;12.27;100.00;96591.72;5056594;28;19932;-77
2022/02/16 06:08:46;;;;;;;;;;;;;;;12.31;100.00;96595.81;5056937;28;20011;-77
2022/02/16 06:11:13;;;;;;;;;;;;;;;12.50;100.00;96599.84;5073166;28;19983;-77
2022/02/16 06:13:42;;;;;;;;;;;;;;;12.39;100.00;96594.13;5056526;28;20019;-77
2022/02/16 06:16:13;;;;;;;;;;;;;;;12.53;100.00;96598.06;5073331;28;19936;-77
2022/02/16 06:18:40;;;;;;;;;;;;;;;12.32;100.00;96591.78;5072582;28;19924;-77
2022/02/16 06:21:08;;;;;;;;;;;;;;;12.44;100.00;96592.66;5056608;28;19928;-77
2022/02/16 06:23:38;;;;;;;;;;;;;;;12.50;100.00;96588.66;5086265;28;19928;-77
2022/02/16 06:26:07;;;;;;;;;;;;;;;12.41;100.00;96585.22;5093161;28;19959;-77
2022/02/16 06:28:34;;;;;;;;;;;;;;;12.27;100.00;96605.69;5093322;28;19924;-77
2022/02/16 06:31:04;;;;;;;;;;;;;;;12.36;100.00;96606.31;5076280;28;19924;-77
2022/02/16 06:33:31;;;;;;;;;;;;;;;12.25;100.00;96608.25;5076090;28;19936;-77
2022/02/16 06:35:59;;;;;;;;;;;;;;;12.37;100.00;96605.03;5093079;28;19932;-77
2022/02/16 06:38:28;;;;;;;;;;;;;;;12.12;100.00;96580.63;5093128;28;19932;-77
2022/02/16 06:40:55;;;;;;;;;;;;;;;12.12;100.00;96624.63;5093032;28;19924;-77
2022/02/16 06:43:22;;;;;;;;;;;;;;;12.26;100.00;96616.16;5092426;28;19924;-77
2022/02/16 06:45:50;;;;;;;;;;;;;;;12.22;100.00;96604.38;5092560;28;20291;-77
2022/02/16 06:48:18;;;;;;;;;;;;;;;12.00;100.00;96592.19;5092365;28;19928;-77
2022/02/16 06:50:47;;;;;;;;;;;;;;;11.97;100.00;96604.34;5092599;28;19978;-77
2022/02/16 06:53:16;;;;;;;;;;;;;;;12.06;100.00;96579.78;5059464;28;20311;-77
2022/02/16 06:55:44;;;;;;;;;;;;;;;12.03;100.00;96564.00;5076816;28;20397;-77
2022/02/16 06:58:16;;;;;;;;;;;;;;;12.09;100.00;96562.00;5092899;28;19928;-77
2022/02/16 07:00:44;;;;;;;;;;;;;;;12.03;100.00;96561.19;5076646;28;19931;-76
2022/02/16 07:03:13;;;;;;;;;;;;;;;12.17;100.00;96549.13;5092491;28;19924;-77
2022/02/16 07:06:02;;;;;;;;;;;;;;;12.11;100.00;96548.31;5092854;28;19959;-76
2022/02/16 07:08:29;;;;;;;;;;;;;;;12.06;100.00;96545.44;5092887;28;20387;-77
2022/02/16 07:10:57;;;;;;;;;;;;;;;11.95;100.00;96557.28;5092722;28;20356;-77
2022/02/16 07:13:24;;;;;;;;;;;;;;;12.13;100.00;96556.97;5093202;28;19974;-77
2022/02/16 07:15:52;;;;;;;;;;;;;;;12.04;100.00;96537.53;5093018;28;20019;-78
2022/02/16 07:18:30;;;;;;;;;;;;;;;12.00;100.00;96523.00;5075909;28;19999;-76
2022/02/16 07:21:11;;;;;;;;;;;;;;;11.95;100.00;96526.50;5075575;28;19925;-76
2022/02/16 07:23:38;;;;;;;;;;;;;;;11.79;100.00;96538.28;5092364;28;19928;-75
2022/02/16 07:26:06;;;;;;;;;;;;;;;11.77;100.00;96534.47;5092365;28;19993;-76
2022/02/16 07:28:34;;;;;;;;;;;;;;;11.71;100.00;96542.75;5092255;28;19981;-75
2022/02/16 07:31:01;;;;;;;;;;;;;;;11.86;100.00;96548.28;5092226;28;19924;-76
2022/02/16 07:33:29;;;;;;;;;;;;;;;11.87;100.00;96561.78;5096438;28;19928;-76
2022/02/16 07:35:56;;;;;;;;;;;;;;;11.76;100.00;96549.69;5089623;28;19931;-76
2022/02/16 07:38:23;;;;;;;;;;;;;;;11.77;100.00;96563.19;5060956;28;19924;-76
2022/02/16 07:40:51;;;;;;;;;;;;;;;11.70;100.00;96577.59;5059519;28;20277;-75
2022/02/16 07:43:21;;;;;;;;;;;;;;;11.88;100.00;96584.91;5069634;28;19951;-76
2022/02/16 07:46:08;;;;;;;;;;;;;;;11.71;100.00;96581.94;5077637;28;19977;-76
2022/02/16 07:48:40;;;;;;;;;;;;;;;11.88;100.00;96596.88;5113202;28;19924;-76
2022/02/16 07:51:18;;;;;;;;;;;;;;;11.80;100.00;96592.22;5096132;28;20334;-76
2022/02/16 07:54:19;;;;;;;;;;;;;;;11.75;100.00;96604.09;5096109;28;19924;-76
2022/02/16 07:56:53;;;;;;;;;;;;;;;11.80;100.00;96575.44;5096044;28;20435;-76
2022/02/16 07:59:20;;;;;;;;;;;;;;;11.95;100.00;96567.72;5095941;28;19964;-76
2022/02/16 08:01:47;;;;;;;;;;;;;;;12.08;100.00;96565.31;5095971;28;19928;-76
2022/02/16 08:04:16;;;;;;;;;;;;;;;12.07;100.00;96552.59;5095945;28;19928;-76
2022/02/16 08:06:47;;;;;;;;;;;;;;;12.22;100.00;96553.25;5096038;28;19935;-76
2022/02/16 08:09:16;;;;;;;;;;;;;;;12.10;100.00;96569.13;5092508;28;20010;-76
2022/02/16 08:11:44;;;;;;;;;;;;;;;12.20;100.00;96583.75;5042271;28;19924;-76
2022/02/16 08:14:11;;;;;;;;;;;;;;;12.17;100.00;96591.13;5059962;28;19987;-76
2022/02/16 08:16:52;;;;;;;;;;;;;;;12.10;100.00;96557.19;5078535;28;19925;-76
2022/02/16 08:19:19;;;;;;;;;;;;;;;12.33;100.00;96576.50;5092153;28;19929;-76
2022/02/16 08:21:46;;;;;;;;;;;;;;;12.30;100.00;96594.28;5079243;28;19977;-76
2022/02/16 08:24:14;;;;;;;;;;;;;;;12.38;100.00;96601.00;5095505;28;19924;-74
2022/02/16 08:26:45;;;;;;;;;;;;;;;12.38;100.00;96556.19;5095630;28;19925;-74
2022/02/16 08:29:15;;;;;;;;;;;;;;;12.46;100.00;96584.53;5095201;28;19931;-75
2022/02/16 08:31:45;;;;;;;;;;;;;;;12.64;100.00;96558.97;5095329;28;19923;-75
2022/02/16 08:34:30;;;;;;;;;;;;;;;12.64;100.00;96553.38;5087782;28;19932;-75
2022/02/16 08:37:04;;;;;;;;;;;;;;;12.63;100.00;96561.00;5058493;28;20001;-74
2022/02/16 08:39:31;;;;;;;;;;;;;;;13.04;100.00;96564.38;5076304;28;19947;-75
2022/02/16 08:41:59;;;;;;;;;;;;;;;13.14;100.00;96567.78;5075634;28;20023;-75
2022/02/16 08:44:26;;;;;;;;;;;;;;;13.12;100.00;96540.25;5058190;28;19932;-75
2022/02/16 08:46:53;;;;;;;;;;;;;;;13.21;100.00;96575.75;5058358;28;20415;-75
2022/02/16 08:49:20;;;;;;;;;;;;;;;13.08;100.00;96612.59;5076011;28;20015;-75
2022/02/16 08:51:48;;;;;;;;;;;;;;;13.18;100.00;96615.97;5075993;28;19924;-75
2022/02/16 08:54:15;;;;;;;;;;;;;;;13.51;100.00;96619.00;5058181;28;19925;-75
2022/02/16 08:56:46;;;;;;;;;;;;;;;13.50;100.00;96637.84;5075958;28;20015;-75
2022/02/16 08:59:13;;;;;;;;;;;;;;;13.22;100.00;96656.53;5075637;28;20019;-78
2022/02/16 09:01:43;;;;;;;;;;;;;;;13.10;100.00;96654.16;5072229;28;19928;-74
2022/02/16 09:04:10;;;;;;;;;;;;;;;13.03;100.00;96646.94;5073477;28;20402;-80
2022/02/16 09:06:37;;;;;;;;;;;;;;;13.08;100.00;96667.88;5072352;28;19931;-75
2022/02/16 09:09:04;;;;;;;;;;;;;;;12.96;100.00;96678.22;5071703;28;19960;-75
2022/02/16 09:11:31;;;;;;;;;;;;;;;12.64;100.00;96671.78;5071653;28;19925;-75
2022/02/16 09:13:58;;;;;;;;;;;;;;;12.72;100.00;96688.94;5072053;28;19939;-75
2022/02/16 09:16:26;;;;;;;;;;;;;;;12.90;100.00;96673.81;5086121;28;20466;-75
2022/02/16 09:18:53;;;;;;;;;;;;;;;12.66;100.00;96660.09;5091818;28;19931;-75
2022/02/16 09:21:20;;;;;;;;;;;;;;;12.88;100.00;96671.50;5076412;28;20302;-76
2022/02/16 09:23:48;;;;;;;;;;;;;;;12.74;100.00;96647.16;5071926;28;20011;-76
2022/02/16 09:26:16;;;;;;;;;;;;;;;12.51;100.00;96660.19;5063738;28;19956;-76
2022/02/16 09:28:43;;;;;;;;;;;;;;;12.43;100.00;96644.31;5079858;28;19924;-76
2022/02/16 09:31:10;;;;;;;;;;;;;;;12.43;100.00;96667.47;5091756;28;19932;-75
2022/02/16 09:33:37;;;;;;;;;;;;;;;12.37;100.00;96644.25;5091431;28;19986;-76
2022/02/16 09:36:05;;;;;;;;;;;;;;;12.74;100.00;96673.16;5092229;28;19989;-76
2022/02/16 09:38:32;;;;;;;;;;;;;;;12.50;100.00;96681.06;5091338;28;19928;-76
2022/02/16 09:41:00;;;;;;;;;;;;;;;12.42;100.00;96679.16;5082387;28;19929;-76
2022/02/16 09:43:27;;;;;;;;;;;;;;;12.53;100.00;96682.88;5070286;28;19928;-76
2022/02/16 09:45:55;;;;;;;;;;;;;;;12.47;100.00;96682.03;5055944;28;20283;-76
2022/02/16 09:48:23;;;;;;;;;;;;;;;12.49;100.00;96668.34;5074081;28;19999;-76
2022/02/16 09:50:52;;;;;;;;;;;;;;;12.46;100.00;96658.09;5072742;28;19924;-79
2022/02/16 09:53:27;;;;;;;;;;;;;;;12.55;100.00;96671.97;5069663;28;19924;-78
2022/02/16 09:55:58;;;;;;;;;;;;;;;12.56;100.00;96684.69;5052763;28;19928;-78
2022/02/16 09:58:25;;;;;;;;;;;;;;;12.42;100.00;96673.56;5069679;28;20375;-78
2022/02/16 10:00:59;;;;;;;;;;;;;;;12.54;100.00;96687.22;5069855;28;20015;-78
2022/02/16 10:03:27;;;;;;;;;;;;;;;12.39;100.00;96678.13;5071461;28;20303;-76
2022/02/16 10:05:54;;;;;;;;;;;;;;;12.55;100.00;96668.38;5070538;28;20363;-76
2022/02/16 10:08:41;;;;;;;;;;;;;;;12.51;100.00;96671.38;5070478;28;20458;-74
2022/02/16 10:11:09;;;;;;;;;;;;;;;12.48;100.00;96669.56;5080472;28;20014;-73
2022/02/16 10:13:37;;;;;;;;;;;;;;;12.70;100.00;96675.41;5090642;28;19924;-74
2022/02/16 10:16:04;;;;;;;;;;;;;;;12.62;100.00;96660.31;5091480;28;19925;-74
2022/02/16 10:18:31;;;;;;;;;;;;;;;13.05;100.00;96658.44;5088678;28;19924;-74
2022/02/16 10:21:09;;;;;;;;;;;;;;;12.95;100.00;96670.28;5089961;28;19924;-74
2022/02/16 10:23:41;;;;;;;;;;;;;;;12.71;100.00;96679.75;5089897;28;20360;-74
2022/02/16 10:26:09;;;;;;;;;;;;;;;12.84;100.00;96667.38;5090316;28;20425;-75
2022/02/16 10:28:43;;;;;;;;;;;;;;;12.81;100.00;96676.78;5089005;28;19931;-74
2022/02/16 10:31:11;;;;;;;;;;;;;;;12.98;100.00;96669.31;5089974;28;20313;-74
2022/02/16 10:33:38;;;;;;;;;;;;;;;12.96;100.00;96649.41;5089938;28;20269;-75
2022/02/16 10:36:08;;;;;;;;;;;;;;;12.94;100.00;96643.50;5091206;28;20011;-74
2022/02/16 10:38:55;;;;;;;;;;;;;;;13.12;100.00;96646.75;5089262;28;19928;-77
2022/02/16 10:41:24;;;;;;;;;;;;;;;13.34;100.00;96640.56;5082492;28;19924;-78
2022/02/16 10:43:52;;;;;;;;;;;;;;;13.27;100.00;96610.19;5087747;28;19928;-76
2022/02/16 10:46:24;;;;;;;;;;;;;;;13.35;100.00;96602.81;5089240;28;19998;-73
2022/02/16 10:49:11;;;;;;;;;;;;;;;13.50;100.00;96611.84;5090399;28;19924;-76
2022/02/16 10:52:07;;;;;;;;;;;;;;;13.30;100.00;96606.38;5090647;28;19928;-76
2022/02/16 10:54:35;;;;;;;;;;;;;;;13.50;100.00;96598.59;5089122;28;20368;-74
2022/02/16 10:57:03;;;;;;;;;;;;;;;13.25;100.00;96593.88;5090361;28;20531;-75
2022/02/16 11:02:47;;;;;;;;;;;;;;;13.42;100.00;96580.69;5085350;28;19928;-76
2022/02/16 11:05:17;;;;;;;;;;;;;;;13.25;100.00;96587.47;5089500;28;19931;-77
2022/02/16 11:07:44;;;;;;;;;;;;;;;13.34;100.00;96596.47;5072441;28;20284;-76
2022/02/16 11:10:12;;;;;;;;;;;;;;;13.55;100.00;96591.47;5089747;28;20026;-77
2022/02/16 11:12:39;;;;;;;;;;;;;;;13.34;100.00;96585.25;5089816;28;19924;-77
2022/02/16 11:15:07;;;;;;;;;;;;;;;13.35;100.00;96592.38;5090368;28;20513;-75
2022/02/16 11:17:35;;;;;;;;;;;;;;;13.50;100.00;96603.44;5089908;28;20732;-76
2022/02/16 11:20:21;;;;;;;;;;;;;;;13.57;100.00;96574.91;5089639;28;19924;-75
2022/02/16 11:22:51;;;;;;;;;;;;;;;13.67;100.00;96570.63;5089709;28;19947;-77
2022/02/16 11:25:32;;;;;;;;;;;;;;;13.47;100.00;96557.53;5075844;28;19924;-76
2022/02/16 11:28:00;;;;;;;;;;;;;;;13.27;100.00;96559.72;5071539;28;19931;-74
2022/02/16 11:30:32;;;;;;;;;;;;;;;13.49;100.00;96551.41;5072156;28;19925;-74
2022/02/16 11:33:19;;;;;;;;;;;;;;;13.15;100.00;96535.66;5073285;28;19932;-75
2022/02/16 11:35:47;;;;;;;;;;;;;;;12.99;100.00;96531.47;5073467;28;19931;-74
2022/02/16 11:38:16;;;;;;;;;;;;;;;12.99;100.00;96508.28;5074257;28;20023;-75
2022/02/16 11:40:46;;;;;;;;;;;;;;;12.80;100.00;96505.09;5105758;28;19938;-75
2022/02/16 11:43:15;;;;;;;;;;;;;;;12.72;100.00;96501.25;5072922;28;19952;-75
2022/02/16 11:45:48;;;;;;;;;;;;;;;12.93;100.00;96487.84;5071345;28;20019;-75
2022/02/16 11:48:44;;;;;;;;;;;;;;;12.78;100.00;96513.25;5072866;28;19951;-75
2022/02/16 11:51:23;;;;;;;;;;;;;;;12.77;100.00;96500.50;5064217;28;19931;-75
2022/02/16 11:53:51;;;;;;;;;;;;;;;12.71;100.00;96499.69;5071478;28;19932;-75
2022/02/16 11:56:19;;;;;;;;;;;;;;;12.93;100.00;96499.84;5071649;28;20497;-75
2022/02/16 11:59:05;;;;;;;;;;;;;;;12.94;100.00;96497.78;5073195;28;19931;-75
2022/02/16 12:01:32;;;;;;;;;;;;;;;12.85;100.00;96498.75;5071656;28;19931;-75
2022/02/16 12:03:59;;;;;;;;;;;;;;;12.61;100.00;96487.91;5072136;28;19925;-74
2022/02/16 12:06:36;;;;;;;;;;;;;;;12.91;100.00;96476.38;5073067;28;20291;-75
2022/02/16 12:09:05;;;;;;;;;;;;;;;12.76;100.00;96451.34;5071762;28;19962;-75
2022/02/16 12:11:35;;;;;;;;;;;;;;;12.96;100.00;96442.03;5073010;28;19970;-75
2022/02/16 12:14:04;;;;;;;;;;;;;;;13.04;100.00;96435.47;5072788;28;20273;-75
2022/02/16 12:16:33;;;;;;;;;;;;;;;12.66;100.00;96422.75;5073062;28;19931;-75
2022/02/16 12:19:05;;;;;;;;;;;;;;;12.77;100.00;96429.69;5074906;28;19928;-75
2022/02/16 12:21:34;;;;;;;;;;;;;;;12.88;100.00;96424.91;5076562;28;19924;-75
2022/02/16 12:24:05;;;;;;;;;;;;;;;12.84;100.00;96413.19;5075202;28;19924;-74
2022/02/16 12:26:36;;;;;;;;;;;;;;;12.97;100.00;96415.53;5058869;28;19931;-75
2022/02/16 12:29:05;;;;;;;;;;;;;;;12.98;100.00;96406.63;5076340;28;19931;-75
2022/02/16 12:31:36;;;;;;;;;;;;;;;12.95;100.00;96379.59;5075170;28;19932;-75
2022/02/16 12:34:10;;;;;;;;;;;;;;;13.03;100.00;96379.91;5076409;28;19925;-74
2022/02/16 12:36:43;;;;;;;;;;;;;;;12.98;100.00;96372.97;5076443;28;20019;-75
2022/02/16 12:39:12;;;;;;;;;;;;;;;13.05;100.00;96372.56;5075075;28;19925;-74
2022/02/16 12:41:40;;;;;;;;;;;;;;;13.20;100.00;96375.91;5076228;28;20323;-75
2022/02/16 12:44:08;;;;;;;;;;;;;;;13.25;100.00;96360.38;5075822;28;20387;-74
2022/02/16 12:46:44;;;;;;;;;;;;;;;13.18;100.00;96347.59;5042273;28;19925;-75
2022/02/16 12:49:12;;;;;;;;;;;;;;;13.42;100.00;96322.69;5074943;28;20007;-75
2022/02/16 12:51:42;;;;;;;;;;;;;;;13.50;100.00;96306.13;5058358;28;19924;-75
2022/02/16 12:54:10;;;;;;;;;;;;;;;13.21;100.00;96312.94;5074721;28;19932;-75
2022/02/16 12:56:42;;;;;;;;;;;;;;;13.52;100.00;96309.19;5076066;28;19924;-75